createdAt,value
2018-06-03T00:00:01.152Z,81.02
2018-06-03T00:01:01.213Z,81.88
2018-06-03T00:02:01.272Z,80.44
2018-06-03T00:03:01.331Z,79.49
2018-06-03T00:04:01.393Z,78.34
2018-06-03T00:05:01.453Z,79.96
2018-06-03T00:06:01.513Z,77.28
2018-06-03T00:07:01.571Z,77.00
2018-06-03T00:08:01.633Z,80.44
2018-06-03T00:09:01.691Z,81.02
2018-06-03T00:10:01.753Z,79.96
2018-06-03T00:11:01.812Z,78.63
2018-06-03T00:12:01.872Z,79.68
2018-06-03T00:13:01.933Z,79.87
2018-06-03T00:14:01.994Z,78.81
2018-06-03T00:15:02.052Z,79.29
2018-06-03T00:16:02.115Z,76.62
2018-06-03T00:17:02.173Z,77.67
2018-06-03T00:18:02.233Z,77.57
2018-06-03T00:19:02.292Z,77.76
2018-06-03T00:20:02.353Z,77.95
2018-06-03T00:21:02.413Z,75.91
2018-06-03T00:22:02.472Z,77.44
2018-06-03T00:23:02.533Z,77.09
2018-06-03T00:24:02.594Z,77.28
2018-06-03T00:25:02.653Z,77.86
2018-06-03T00:26:02.713Z,78.81
2018-06-03T00:27:02.771Z,77.95
2018-06-03T00:28:02.831Z,76.81
2018-06-03T00:29:02.892Z,78.91
2018-06-03T00:30:03.203Z,80.63
2018-06-03T00:31:03.014Z,79.39
2018-06-03T00:32:03.071Z,79.77
2018-06-03T00:33:03.131Z,79.39
2018-06-03T00:34:03.191Z,80.88
2018-06-03T00:35:03.251Z,77.92
2018-06-03T00:36:03.315Z,78.87
2018-06-03T00:37:03.371Z,78.58
2018-06-03T00:38:03.431Z,77.53
2018-06-03T00:39:03.490Z,78.68
2018-06-03T00:40:03.551Z,78.68
2018-06-03T00:41:03.609Z,78.30
2018-06-03T00:42:03.672Z,79.44
2018-06-03T00:43:03.732Z,79.44
2018-06-03T00:44:03.790Z,79.35
2018-06-03T00:45:03.851Z,78.87
2018-06-03T00:46:03.911Z,78.58
2018-06-03T00:47:03.970Z,78.20
2018-06-03T00:48:04.030Z,77.15
2018-06-03T00:49:04.091Z,77.44
2018-06-03T00:50:04.151Z,76.96
2018-06-03T00:51:04.209Z,75.05
2018-06-03T00:52:04.270Z,74.76
2018-06-03T00:53:04.329Z,77.25
2018-06-03T00:54:04.388Z,75.62
2018-06-03T00:55:04.449Z,75.91
2018-06-03T00:56:04.509Z,75.81
2018-06-03T00:57:04.569Z,78.97
2018-06-03T00:58:04.629Z,77.44
2018-06-03T00:59:04.688Z,78.30
2018-06-03T01:00:04.750Z,73.90
2018-06-03T01:01:04.808Z,76.48
2018-06-03T01:02:04.875Z,78.78
2018-06-03T01:03:04.929Z,74.09
2018-06-03T01:04:04.988Z,76.67
2018-06-03T01:05:05.047Z,75.14
2018-06-03T01:06:05.108Z,73.52
2018-06-03T01:07:05.167Z,76.96
2018-06-03T01:08:05.265Z,78.01
2018-06-03T01:09:05.288Z,78.01
2018-06-03T01:10:05.346Z,77.15
2018-06-03T01:11:05.407Z,76.06
2018-06-03T01:12:05.470Z,75.78
2018-06-03T01:13:05.525Z,73.77
2018-06-03T01:14:05.589Z,75.68
2018-06-03T01:15:05.642Z,76.82
2018-06-03T01:16:05.703Z,75.96
2018-06-03T01:17:05.764Z,75.30
2018-06-03T01:18:05.825Z,75.87
2018-06-03T01:19:05.883Z,75.39
2018-06-03T01:20:05.942Z,73.19
2018-06-03T01:21:06.002Z,73.77
2018-06-03T01:22:06.072Z,73.48
2018-06-03T01:23:06.122Z,72.24
2018-06-03T01:24:06.181Z,73.86
2018-06-03T01:25:06.248Z,73.48
2018-06-03T01:26:06.353Z,73.86
2018-06-03T01:27:06.360Z,72.24
2018-06-03T01:28:06.420Z,71.86
2018-06-03T01:29:06.480Z,72.24
2018-06-03T01:30:06.543Z,71.19
2018-06-03T01:31:06.602Z,72.24
2018-06-03T01:32:06.658Z,68.90
2018-06-03T01:33:06.718Z,71.76
2018-06-03T01:34:06.778Z,70.61
2018-06-03T01:35:06.842Z,71.86
2018-06-03T01:36:06.897Z,71.09
2018-06-03T01:37:06.956Z,71.86
2018-06-03T01:38:07.016Z,72.53
2018-06-03T01:39:07.075Z,69.76
2018-06-03T01:40:07.135Z,72.24
2018-06-03T01:41:07.195Z,72.14
2018-06-03T01:42:07.256Z,71.95
2018-06-03T01:43:07.314Z,68.99
2018-06-03T01:44:07.373Z,71.95
2018-06-03T01:45:07.433Z,71.47
2018-06-03T01:46:07.492Z,71.95
2018-06-03T01:47:07.552Z,72.33
2018-06-03T01:48:07.612Z,72.72
2018-06-03T01:49:07.670Z,72.05
2018-06-03T01:50:07.731Z,73.19
2018-06-03T01:51:07.789Z,70.71
2018-06-03T01:52:07.849Z,71.38
2018-06-03T01:53:07.909Z,72.43
2018-06-03T01:54:07.969Z,72.43
2018-06-03T01:55:08.028Z,71.86
2018-06-03T01:56:08.088Z,71.47
2018-06-03T01:57:08.146Z,72.33
2018-06-03T01:58:08.207Z,73.10
2018-06-03T01:59:08.268Z,72.05
2018-06-03T02:00:08.325Z,71.76
2018-06-03T02:01:08.384Z,70.01
2018-06-03T02:02:08.444Z,68.38
2018-06-03T02:03:08.504Z,68.19
2018-06-03T02:04:08.562Z,68.51
2018-06-03T02:05:08.628Z,71.28
2018-06-03T02:06:08.682Z,71.15
2018-06-03T02:07:08.740Z,69.85
2018-06-03T02:08:08.799Z,72.43
2018-06-03T02:09:08.863Z,71.72
2018-06-03T02:10:08.919Z,70.87
2018-06-03T02:11:08.978Z,69.91
2018-06-03T02:12:09.038Z,67.55
2018-06-03T02:13:09.098Z,71.92
2018-06-03T02:14:09.157Z,71.19
2018-06-03T02:15:09.216Z,69.82
2018-06-03T02:16:09.275Z,71.63
2018-06-03T02:17:09.335Z,70.58
2018-06-03T02:18:09.394Z,71.06
2018-06-03T02:19:09.453Z,70.01
2018-06-03T02:20:09.512Z,68.48
2018-06-03T02:21:09.578Z,67.62
2018-06-03T02:22:09.631Z,65.90
2018-06-03T02:23:09.691Z,67.43
2018-06-03T02:24:09.750Z,66.09
2018-06-03T02:25:09.810Z,66.19
2018-06-03T02:26:09.869Z,68.48
2018-06-03T02:27:09.926Z,68.57
2018-06-03T02:28:09.987Z,67.62
2018-06-03T02:29:10.046Z,68.57
2018-06-03T02:30:10.111Z,68.48
2018-06-03T02:31:10.165Z,66.56
2018-06-03T02:32:10.233Z,65.71
2018-06-03T02:33:10.283Z,66.28
2018-06-03T02:34:10.344Z,67.91
2018-06-03T02:35:10.404Z,68.48
2018-06-03T02:36:10.464Z,67.81
2018-06-03T02:37:10.525Z,68.19
2018-06-03T02:38:10.580Z,68.29
2018-06-03T02:39:10.639Z,66.76
2018-06-03T02:40:10.699Z,65.71
2018-06-03T02:41:10.758Z,69.34
2018-06-03T02:42:10.819Z,68.38
2018-06-03T02:43:10.877Z,69.43
2018-06-03T02:44:10.935Z,66.19
2018-06-03T02:45:10.997Z,69.24
2018-06-03T02:46:11.056Z,68.57
2018-06-03T02:47:11.114Z,69.53
2018-06-03T02:48:11.174Z,69.05
2018-06-03T02:49:11.236Z,68.10
2018-06-03T02:50:11.295Z,69.49
2018-06-03T02:51:11.350Z,68.38
2018-06-03T02:52:11.410Z,68.10
2018-06-03T02:53:11.471Z,67.52
2018-06-03T02:54:11.530Z,66.72
2018-06-03T02:55:11.587Z,63.89
2018-06-03T02:56:11.647Z,65.90
2018-06-03T02:57:11.705Z,64.85
2018-06-03T02:58:11.765Z,65.71
2018-06-03T02:59:11.823Z,64.37
2018-06-03T03:00:11.884Z,65.42
2018-06-03T03:01:11.942Z,66.09
2018-06-03T03:02:12.003Z,66.85
2018-06-03T03:03:12.061Z,66.47
2018-06-03T03:04:12.371Z,66.47
2018-06-03T03:05:12.179Z,66.56
2018-06-03T03:06:12.239Z,67.33
2018-06-03T03:07:12.297Z,69.02
2018-06-03T03:08:12.366Z,68.54
2018-06-03T03:09:12.417Z,67.01
2018-06-03T03:10:12.476Z,68.44
2018-06-03T03:11:12.533Z,68.44
2018-06-03T03:12:12.593Z,67.21
2018-06-03T03:13:12.653Z,66.92
2018-06-03T03:14:12.712Z,66.25
2018-06-03T03:15:12.771Z,65.10
2018-06-03T03:16:12.830Z,66.06
2018-06-03T03:17:12.889Z,65.96
2018-06-03T03:18:12.949Z,65.87
2018-06-03T03:19:13.007Z,67.49
2018-06-03T03:20:13.066Z,67.87
2018-06-03T03:21:13.126Z,67.68
2018-06-03T03:22:13.185Z,67.21
2018-06-03T03:23:13.244Z,67.30
2018-06-03T03:24:13.305Z,66.06
2018-06-03T03:25:13.363Z,64.72
2018-06-03T03:26:13.422Z,65.10
2018-06-03T03:27:13.480Z,67.68
2018-06-03T03:28:13.540Z,66.15
2018-06-03T03:29:13.599Z,68.26
2018-06-03T03:30:13.663Z,69.02
2018-06-03T03:31:13.718Z,69.11
2018-06-03T03:32:13.776Z,67.21
2018-06-03T03:33:13.836Z,67.21
2018-06-03T03:34:13.895Z,66.53
2018-06-03T03:35:13.953Z,66.92
2018-06-03T03:36:14.016Z,67.87
2018-06-03T03:37:14.076Z,66.06
2018-06-03T03:38:14.382Z,66.35
2018-06-03T03:39:14.190Z,67.11
2018-06-03T03:40:14.249Z,69.49
2018-06-03T03:41:14.308Z,68.63
2018-06-03T03:42:14.368Z,70.45
2018-06-03T03:43:14.427Z,70.07
2018-06-03T03:44:14.485Z,68.26
2018-06-03T03:45:14.545Z,68.35
2018-06-03T03:46:14.604Z,67.21
2018-06-03T03:47:14.662Z,62.15
2018-06-03T03:48:14.726Z,65.01
2018-06-03T03:49:14.782Z,64.72
2018-06-03T03:50:14.844Z,67.68
2018-06-03T03:51:14.900Z,65.58
2018-06-03T03:52:14.959Z,67.11
2018-06-03T03:53:15.018Z,69.40
2018-06-03T03:54:15.077Z,71.21
2018-06-03T03:55:15.135Z,71.98
2018-06-03T03:56:15.195Z,72.07
2018-06-03T03:57:15.252Z,69.97
2018-06-03T03:58:15.315Z,68.16
2018-06-03T03:59:15.371Z,68.35
2018-06-03T04:00:15.477Z,66.06
2018-06-03T04:01:15.527Z,66.92
2018-06-03T04:02:15.549Z,67.77
2018-06-03T04:03:15.607Z,65.87
2018-06-03T04:04:15.669Z,66.92
2018-06-03T04:05:15.726Z,67.40
2018-06-03T04:06:15.787Z,66.66
2018-06-03T04:07:15.858Z,68.48
2018-06-03T04:08:15.904Z,70.67
2018-06-03T04:09:15.963Z,73.25
2018-06-03T04:10:16.022Z,75.42
2018-06-03T04:11:16.081Z,73.88
2018-06-03T04:12:16.141Z,71.88
2018-06-03T04:13:16.232Z,72.64
2018-06-03T04:14:16.258Z,72.07
2018-06-03T04:15:16.316Z,71.98
2018-06-03T04:16:16.378Z,72.74
2018-06-03T04:17:16.436Z,73.60
2018-06-03T04:18:16.496Z,72.55
2018-06-03T04:19:16.554Z,72.20
2018-06-03T04:20:16.618Z,71.25
2018-06-03T04:21:16.874Z,72.87
2018-06-03T04:22:16.732Z,73.44
2018-06-03T04:23:16.792Z,77.45
2018-06-03T04:24:16.849Z,76.88
2018-06-03T04:25:16.909Z,77.55
2018-06-03T04:26:16.969Z,76.60
2018-06-03T04:27:17.029Z,76.69
2018-06-03T04:28:17.087Z,75.35
2018-06-03T04:29:17.146Z,74.21
2018-06-03T04:30:17.206Z,73.32
2018-06-03T04:31:17.265Z,73.41
2018-06-03T04:32:17.323Z,70.87
2018-06-03T04:33:17.387Z,72.58
2018-06-03T04:34:17.443Z,70.39
2018-06-03T04:35:17.500Z,70.96
2018-06-03T04:36:17.560Z,70.77
2018-06-03T04:37:17.626Z,71.53
2018-06-03T04:38:17.680Z,76.40
2018-06-03T04:39:17.739Z,75.64
2018-06-03T04:40:17.798Z,74.98
2018-06-03T04:41:17.906Z,74.78
2018-06-03T04:42:17.918Z,72.93
2018-06-03T04:43:17.978Z,71.69
2018-06-03T04:44:18.036Z,72.58
2018-06-03T04:45:18.094Z,76.12
2018-06-03T04:46:18.159Z,72.68
2018-06-03T04:47:18.213Z,75.07
2018-06-03T04:48:18.272Z,79.17
2018-06-03T04:49:18.332Z,77.55
2018-06-03T04:50:18.391Z,76.69
2018-06-03T04:51:18.448Z,77.36
2018-06-03T04:52:18.510Z,74.98
2018-06-03T04:53:18.572Z,76.40
2018-06-03T04:54:18.629Z,74.78
2018-06-03T04:55:18.687Z,72.97
2018-06-03T04:56:18.747Z,77.84
2018-06-03T04:57:18.807Z,78.03
2018-06-03T04:58:19.116Z,77.17
2018-06-03T04:59:18.923Z,77.45
2018-06-03T05:00:18.983Z,79.17
2018-06-03T05:01:19.044Z,77.08
2018-06-03T05:02:19.102Z,78.64
2018-06-03T05:03:19.162Z,78.64
2018-06-03T05:04:19.221Z,81.32
2018-06-03T05:05:19.280Z,80.84
2018-06-03T05:06:19.340Z,82.18
2018-06-03T05:07:19.399Z,81.03
2018-06-03T05:08:19.458Z,79.50
2018-06-03T05:09:19.518Z,79.69
2018-06-03T05:10:19.578Z,79.88
2018-06-03T05:11:19.643Z,78.83
2018-06-03T05:12:19.708Z,79.22
2018-06-03T05:13:19.756Z,79.22
2018-06-03T05:14:19.818Z,80.27
2018-06-03T05:15:20.124Z,81.22
2018-06-03T05:16:19.934Z,78.55
2018-06-03T05:17:19.994Z,77.59
2018-06-03T05:18:20.053Z,81.93
2018-06-03T05:19:20.113Z,83.23
2018-06-03T05:20:20.178Z,83.94
2018-06-03T05:21:20.233Z,84.52
2018-06-03T05:22:20.297Z,83.90
2018-06-03T05:23:20.353Z,81.16
2018-06-03T05:24:20.412Z,82.70
2018-06-03T05:25:20.475Z,84.61
2018-06-03T05:26:20.535Z,85.57
2018-06-03T05:27:20.590Z,82.12
2018-06-03T05:28:20.650Z,81.45
2018-06-03T05:29:20.710Z,80.50
2018-06-03T05:30:20.772Z,82.51
2018-06-03T05:31:20.834Z,81.74
2018-06-03T05:32:20.889Z,79.35
2018-06-03T05:33:20.950Z,76.39
2018-06-03T05:34:21.010Z,72.28
2018-06-03T05:35:21.068Z,70.07
2018-06-03T05:36:21.129Z,67.63
2018-06-03T05:37:21.192Z,65.11
2018-06-03T05:38:21.249Z,63.00
2018-06-03T05:39:21.309Z,60.13
2018-06-03T05:40:21.370Z,58.89
2018-06-03T05:41:21.429Z,56.60
2018-06-03T05:42:21.489Z,55.45
2018-06-03T05:43:21.552Z,53.73
2018-06-03T05:44:21.608Z,51.53
2018-06-03T05:45:21.671Z,50.86
2018-06-03T05:46:21.730Z,49.14
2018-06-03T05:47:21.790Z,48.18
2018-06-03T05:48:21.850Z,48.28
2018-06-03T05:49:21.911Z,47.53
2018-06-03T05:50:21.971Z,46.77
2018-06-03T05:51:22.032Z,46.66
2018-06-03T05:52:22.097Z,46.39
2018-06-03T05:53:22.153Z,45.53
2018-06-03T05:54:22.213Z,45.43
2018-06-03T05:55:22.272Z,45.34
2018-06-03T05:56:22.334Z,44.86
2018-06-03T05:57:22.395Z,44.29
2018-06-03T05:58:22.454Z,43.90
2018-06-03T05:59:22.516Z,44.00
2018-06-03T06:00:22.574Z,44.09
2018-06-03T06:01:22.636Z,44.00
2018-06-03T06:02:22.697Z,45.05
2018-06-03T06:03:22.756Z,45.15
2018-06-03T06:04:22.817Z,45.36
2018-06-03T06:05:22.878Z,46.80
2018-06-03T06:06:22.939Z,46.98
2018-06-03T06:07:22.998Z,48.33
2018-06-03T06:08:23.059Z,49.86
2018-06-03T06:09:23.120Z,51.68
2018-06-03T06:10:23.182Z,53.30
2018-06-03T06:11:23.242Z,54.55
2018-06-03T06:12:23.303Z,56.84
2018-06-03T06:13:23.364Z,58.47
2018-06-03T06:14:23.425Z,58.76
2018-06-03T06:15:23.485Z,58.28
2018-06-03T06:16:23.546Z,59.62
2018-06-03T06:17:23.607Z,60.77
2018-06-03T06:18:23.669Z,61.57
2018-06-03T06:19:23.730Z,61.94
2018-06-03T06:20:23.792Z,62.52
2018-06-03T06:21:23.853Z,63.39
2018-06-03T06:22:23.917Z,63.96
2018-06-03T06:23:24.224Z,64.43
2018-06-03T06:24:24.035Z,64.53
2018-06-03T06:25:24.095Z,64.72
2018-06-03T06:26:24.158Z,64.72
2018-06-03T06:27:24.216Z,64.53
2018-06-03T06:28:24.281Z,65.11
2018-06-03T06:29:24.357Z,66.45
2018-06-03T06:30:24.398Z,69.51
2018-06-03T06:31:24.457Z,70.31
2018-06-03T06:32:24.519Z,72.13
2018-06-03T06:33:24.616Z,72.90
2018-06-03T06:34:24.644Z,74.52
2018-06-03T06:35:24.702Z,76.15
2018-06-03T06:36:24.767Z,75.96
2018-06-03T06:37:24.914Z,78.74
2018-06-03T06:38:24.892Z,78.45
2018-06-03T06:39:24.955Z,78.93
2018-06-03T06:40:25.010Z,79.51
2018-06-03T06:41:25.071Z,80.37
2018-06-03T06:42:25.133Z,82.67
2018-06-03T06:43:25.193Z,83.48
2018-06-03T06:44:25.268Z,83.86
2018-06-03T06:45:25.327Z,82.62
2018-06-03T06:46:25.379Z,82.81
2018-06-03T06:47:25.440Z,83.67
2018-06-03T06:48:25.502Z,84.63
2018-06-03T06:49:25.564Z,85.39
2018-06-03T06:50:25.633Z,88.75
2018-06-03T06:51:25.691Z,88.27
2018-06-03T06:52:25.750Z,91.43
2018-06-03T06:53:25.809Z,93.11
2018-06-03T06:54:25.872Z,96.08
2018-06-03T06:55:26.083Z,97.23
2018-06-03T06:56:25.997Z,98.57
2018-06-03T06:57:26.106Z,99.15
2018-06-03T06:58:26.121Z,99.99
2018-06-03T06:59:26.180Z,99.99
2018-06-03T07:00:26.242Z,99.99
2018-06-03T07:01:26.305Z,99.99
2018-06-03T07:02:26.367Z,99.99
2018-06-03T07:03:26.428Z,99.99
2018-06-03T07:04:26.490Z,99.99
2018-06-03T07:05:26.553Z,99.99
2018-06-03T07:06:26.677Z,99.99
2018-06-03T07:07:26.677Z,99.99
2018-06-03T07:08:26.739Z,99.99
2018-06-03T07:09:26.801Z,99.99
2018-06-03T07:10:26.864Z,99.99
2018-06-03T07:11:26.925Z,99.99
2018-06-03T07:12:26.988Z,99.99
2018-06-03T07:13:27.050Z,99.99
2018-06-03T07:14:27.133Z,99.99
2018-06-03T07:15:27.176Z,99.99
2018-06-03T07:16:27.240Z,99.99
2018-06-03T07:17:27.299Z,99.99
2018-06-03T07:18:27.362Z,99.99
2018-06-03T07:19:27.423Z,99.99
2018-06-03T07:20:27.486Z,99.99
2018-06-03T07:21:27.551Z,99.99
2018-06-03T07:22:27.612Z,99.99
2018-06-03T07:23:27.674Z,99.99
2018-06-03T07:24:27.737Z,99.99
2018-06-03T07:25:27.803Z,99.99
2018-06-03T07:26:27.866Z,99.99
2018-06-03T07:27:27.925Z,99.99
2018-06-03T07:28:27.990Z,99.99
2018-06-03T07:29:28.050Z,99.99
2018-06-03T07:30:28.114Z,99.99
2018-06-03T07:31:28.174Z,99.99
2018-06-03T07:32:28.238Z,99.99
2018-06-03T07:33:28.301Z,99.99
2018-06-03T07:34:28.363Z,99.99
2018-06-03T07:35:28.426Z,99.99
2018-06-03T07:36:28.490Z,99.99
2018-06-03T07:37:28.552Z,99.99
2018-06-03T07:38:28.615Z,99.99
2018-06-03T07:39:28.677Z,99.99
2018-06-03T07:40:28.891Z,99.99
2018-06-03T07:41:28.805Z,99.99
2018-06-03T07:42:28.867Z,99.99
2018-06-03T07:43:28.929Z,99.99
2018-06-03T07:44:28.992Z,99.99
2018-06-03T07:45:29.056Z,99.99
2018-06-03T07:46:29.119Z,99.99
2018-06-03T07:47:29.188Z,99.99
2018-06-03T07:48:29.249Z,99.99
2018-06-03T07:49:29.306Z,99.99
2018-06-03T07:50:29.372Z,99.99
2018-06-03T07:51:29.435Z,99.99
2018-06-03T07:52:29.498Z,99.99
2018-06-03T07:53:29.565Z,99.99
2018-06-03T07:54:29.624Z,99.99
2018-06-03T07:55:29.701Z,99.99
2018-06-03T07:56:29.748Z,99.99
2018-06-03T07:57:29.812Z,99.99
2018-06-03T07:58:29.876Z,99.99
2018-06-03T07:59:29.937Z,99.99
2018-06-03T08:00:30.001Z,99.99
2018-06-03T08:01:30.071Z,99.99
2018-06-03T08:02:30.138Z,99.99
2018-06-03T08:03:30.190Z,99.99
2018-06-03T08:04:30.255Z,99.99
2018-06-03T08:05:30.318Z,99.99
2018-06-03T08:06:30.382Z,99.99
2018-06-03T08:07:30.448Z,99.99
2018-06-03T08:08:30.508Z,99.99
2018-06-03T08:09:30.572Z,99.99
2018-06-03T08:10:30.636Z,99.99
2018-06-03T08:11:30.699Z,99.99
2018-06-03T08:12:30.765Z,99.99
2018-06-03T08:13:30.826Z,99.99
2018-06-03T08:14:30.890Z,99.99
2018-06-03T08:15:30.953Z,99.99
2018-06-03T08:16:31.019Z,99.99
2018-06-03T08:17:31.083Z,99.99
2018-06-03T08:18:31.146Z,99.99
2018-06-03T08:19:31.208Z,99.99
2018-06-03T08:20:31.273Z,99.99
2018-06-03T08:21:31.337Z,99.99
2018-06-03T08:22:31.401Z,99.99
2018-06-03T08:23:31.466Z,99.99
2018-06-03T08:24:31.527Z,99.99
2018-06-03T08:25:31.592Z,99.99
2018-06-03T08:26:31.656Z,99.99
2018-06-03T08:27:31.720Z,99.99
2018-06-03T08:28:31.786Z,99.99
2018-06-03T08:29:31.848Z,99.99
2018-06-03T08:30:31.911Z,99.99
2018-06-03T08:31:31.976Z,99.99
2018-06-03T08:32:32.038Z,99.99
2018-06-03T08:33:32.554Z,99.99
2018-06-03T08:34:32.167Z,99.99
2018-06-03T08:35:32.230Z,99.99
2018-06-03T08:36:32.473Z,99.99
2018-06-03T08:37:32.358Z,99.99
2018-06-03T08:38:32.422Z,99.99
2018-06-03T08:39:32.487Z,99.99
2018-06-03T08:40:32.551Z,99.99
2018-06-03T08:41:32.617Z,98.87
2018-06-03T08:42:32.680Z,99.93
2018-06-03T08:43:32.745Z,99.99
2018-06-03T08:44:32.807Z,99.45
2018-06-03T08:45:32.874Z,99.84
2018-06-03T08:46:32.937Z,99.99
2018-06-03T08:47:33.000Z,99.11
2018-06-03T08:48:33.064Z,99.11
2018-06-03T08:49:33.130Z,97.19
2018-06-03T08:50:33.194Z,96.66
2018-06-03T08:51:33.258Z,95.64
2018-06-03T08:52:33.323Z,94.29
2018-06-03T08:53:33.388Z,93.52
2018-06-03T08:54:33.452Z,93.42
2018-06-03T08:55:33.519Z,94.96
2018-06-03T08:56:33.582Z,94.29
2018-06-03T08:57:33.647Z,95.16
2018-06-03T08:58:33.710Z,94.58
2018-06-03T08:59:33.777Z,94.10
2018-06-03T09:00:33.935Z,93.80
2018-06-03T09:01:33.904Z,93.42
2018-06-03T09:02:33.969Z,93.62
2018-06-03T09:03:34.037Z,93.80
2018-06-03T09:04:34.100Z,93.42
2018-06-03T09:05:34.164Z,93.71
2018-06-03T09:06:34.231Z,93.04
2018-06-03T09:07:34.294Z,93.76
2018-06-03T09:08:34.359Z,92.60
2018-06-03T09:09:34.424Z,91.83
2018-06-03T09:10:34.489Z,90.61
2018-06-03T09:11:34.554Z,90.81
2018-06-03T09:12:34.621Z,90.91
2018-06-03T09:13:34.685Z,88.73
2018-06-03T09:14:34.751Z,89.03
2018-06-03T09:15:34.818Z,89.41
2018-06-03T09:16:34.891Z,88.73
2018-06-03T09:17:34.947Z,88.93
2018-06-03T09:18:35.018Z,88.83
2018-06-03T09:19:35.078Z,89.89
2018-06-03T09:20:35.149Z,90.67
2018-06-03T09:21:35.210Z,88.93
2018-06-03T09:22:35.278Z,88.97
2018-06-03T09:23:35.357Z,88.54
2018-06-03T09:24:35.405Z,89.41
2018-06-03T09:25:35.472Z,88.93
2018-06-03T09:26:35.538Z,89.22
2018-06-03T09:27:35.605Z,89.12
2018-06-03T09:28:35.669Z,88.83
2018-06-03T09:29:35.747Z,91.20
2018-06-03T09:30:35.800Z,91.59
2018-06-03T09:31:35.867Z,89.99
2018-06-03T09:32:35.932Z,89.70
2018-06-03T09:33:35.998Z,88.93
2018-06-03T09:34:36.117Z,88.01
2018-06-03T09:35:36.128Z,89.36
2018-06-03T09:36:36.734Z,88.01
2018-06-03T09:37:36.261Z,86.17
2018-06-03T09:38:36.326Z,86.27
2018-06-03T09:39:36.391Z,85.49
2018-06-03T09:40:36.457Z,84.91
2018-06-03T09:41:36.524Z,83.99
2018-06-03T09:42:36.589Z,83.41
2018-06-03T09:43:36.654Z,83.66
2018-06-03T09:44:36.774Z,83.61
2018-06-03T09:45:36.785Z,82.64
2018-06-03T09:46:36.852Z,80.61
2018-06-03T09:47:36.915Z,79.93
2018-06-03T09:48:36.983Z,78.29
2018-06-03T09:49:37.049Z,77.26
2018-06-03T09:50:37.118Z,76.20
2018-06-03T09:51:37.291Z,75.81
2018-06-03T09:52:37.247Z,76.49
2018-06-03T09:53:37.312Z,78.33
2018-06-03T09:54:37.378Z,77.65
2018-06-03T09:55:37.443Z,77.17
2018-06-03T09:56:37.905Z,76.82
2018-06-03T09:57:37.576Z,75.85
2018-06-03T09:58:37.647Z,74.88
2018-06-03T09:59:37.710Z,73.18
2018-06-03T10:00:37.775Z,73.18
2018-06-03T10:01:37.843Z,73.41
2018-06-03T10:02:37.908Z,73.27
2018-06-03T10:03:37.976Z,73.04
2018-06-03T10:04:38.044Z,72.79
2018-06-03T10:05:38.110Z,71.92
2018-06-03T10:06:38.180Z,73.08
2018-06-03T10:07:38.249Z,73.66
2018-06-03T10:08:38.317Z,73.02
2018-06-03T10:09:38.387Z,72.02
2018-06-03T10:10:38.457Z,74.05
2018-06-03T10:11:38.526Z,73.18
2018-06-03T10:12:38.596Z,73.99
2018-06-03T10:13:38.667Z,71.95
2018-06-03T10:14:38.739Z,70.63
2018-06-03T10:15:38.810Z,69.89
2018-06-03T10:16:38.881Z,68.76
2018-06-03T10:17:38.955Z,69.37
2018-06-03T10:18:39.175Z,70.54
2018-06-03T10:19:39.096Z,68.34
2018-06-03T10:20:39.167Z,66.37
2018-06-03T10:21:39.239Z,64.78
2018-06-03T10:22:39.312Z,63.52
2018-06-03T10:23:39.384Z,61.97
2018-06-03T10:24:39.606Z,62.29
2018-06-03T10:25:39.529Z,62.10
2018-06-03T10:26:39.619Z,61.80
2018-06-03T10:27:39.680Z,62.07
2018-06-03T10:28:39.749Z,61.58
2018-06-03T10:29:39.824Z,61.80
2018-06-03T10:30:39.898Z,60.74
2018-06-03T10:31:39.971Z,60.41
2018-06-03T10:32:40.046Z,58.36
2018-06-03T10:33:40.123Z,57.49
2018-06-03T10:34:40.197Z,58.07
2018-06-03T10:35:40.270Z,58.32
2018-06-03T10:36:40.350Z,57.25
2018-06-03T10:37:40.423Z,56.64
2018-06-03T10:38:40.495Z,55.25
2018-06-03T10:39:40.571Z,57.07
2018-06-03T10:40:40.646Z,57.59
2018-06-03T10:41:40.722Z,56.54
2018-06-03T10:42:40.800Z,56.25
2018-06-03T10:43:40.875Z,54.91
2018-06-03T10:44:40.950Z,54.26
2018-06-03T10:45:41.028Z,54.33
2018-06-03T10:46:41.104Z,53.41
2018-06-03T10:47:41.180Z,53.19
2018-06-03T10:48:41.257Z,54.06
2018-06-03T10:49:41.334Z,53.50
2018-06-03T10:50:41.411Z,53.11
2018-06-03T10:51:41.487Z,52.99
2018-06-03T10:52:41.563Z,52.75
2018-06-03T10:53:41.641Z,52.36
2018-06-03T10:54:41.716Z,52.58
2018-06-03T10:55:41.793Z,52.31
2018-06-03T10:56:41.870Z,53.19
2018-06-03T10:57:41.948Z,54.16
2018-06-03T10:58:42.025Z,55.37
2018-06-03T10:59:42.103Z,55.60
2018-06-03T11:00:42.179Z,54.94
2018-06-03T11:01:42.257Z,53.73
2018-06-03T11:02:42.333Z,52.73
2018-06-03T11:03:42.410Z,53.14
2018-06-03T11:04:42.487Z,52.07
2018-06-03T11:05:42.565Z,51.97
2018-06-03T11:06:42.643Z,52.07
2018-06-03T11:07:42.719Z,52.34
2018-06-03T11:08:42.801Z,53.14
2018-06-03T11:09:42.876Z,55.51
2018-06-03T11:10:42.954Z,57.01
2018-06-03T11:11:43.030Z,56.12
2018-06-03T11:12:43.107Z,55.01
2018-06-03T11:13:43.185Z,53.77
2018-06-03T11:14:43.264Z,52.40
2018-06-03T11:15:43.340Z,52.12
2018-06-03T11:16:43.459Z,52.24
2018-06-03T11:17:43.496Z,52.97
2018-06-03T11:18:43.573Z,53.91
2018-06-03T11:19:43.650Z,53.38
2018-06-03T11:20:43.728Z,53.40
2018-06-03T11:21:43.805Z,55.35
2018-06-03T11:22:43.886Z,54.79
2018-06-03T11:23:43.961Z,53.75
2018-06-03T11:24:44.041Z,53.14
2018-06-03T11:25:44.117Z,53.55
2018-06-03T11:26:44.194Z,53.14
2018-06-03T11:27:44.273Z,54.44
2018-06-03T11:28:44.349Z,54.50
2018-06-03T11:29:44.429Z,53.38
2018-06-03T11:30:44.506Z,52.56
2018-06-03T11:31:44.583Z,50.12
2018-06-03T11:32:44.661Z,49.29
2018-06-03T11:33:44.740Z,48.58
2018-06-03T11:34:44.816Z,50.19
2018-06-03T11:35:44.893Z,51.82
2018-06-03T11:36:44.972Z,51.63
2018-06-03T11:37:45.051Z,53.45
2018-06-03T11:38:45.129Z,53.09
2018-06-03T11:39:45.206Z,52.70
2018-06-03T11:40:45.322Z,52.97
2018-06-03T11:41:45.361Z,53.16
2018-06-03T11:42:45.439Z,53.48
2018-06-03T11:43:45.517Z,51.97
2018-06-03T11:44:45.593Z,50.92
2018-06-03T11:45:45.672Z,49.04
2018-06-03T11:46:45.753Z,47.24
2018-06-03T11:47:45.827Z,47.02
2018-06-03T11:48:45.905Z,47.28
2018-06-03T11:49:45.990Z,48.10
2018-06-03T11:50:46.070Z,49.90
2018-06-03T11:51:46.142Z,49.63
2018-06-03T11:52:46.232Z,49.19
2018-06-03T11:53:46.307Z,47.63
2018-06-03T11:54:46.369Z,49.34
2018-06-03T11:55:46.447Z,49.02
2018-06-03T11:56:46.526Z,49.51
2018-06-03T11:57:46.604Z,49.17
2018-06-03T11:58:46.681Z,49.78
2018-06-03T11:59:47.029Z,49.22
2018-06-03T12:00:46.836Z,48.02
2018-06-03T12:01:46.925Z,47.19
2018-06-03T12:02:46.992Z,45.65
2018-06-03T12:03:47.744Z,45.51
2018-06-03T12:04:47.151Z,45.70
2018-06-03T12:05:47.225Z,45.12
2018-06-03T12:06:47.303Z,44.74
2018-06-03T12:07:47.378Z,44.84
2018-06-03T12:08:47.457Z,44.45
2018-06-03T12:09:47.534Z,44.20
2018-06-03T12:10:48.967Z,43.73
2018-06-03T12:11:47.690Z,43.54
2018-06-03T12:12:47.770Z,44.32
2018-06-03T12:13:47.847Z,43.85
2018-06-03T12:14:47.927Z,43.62
2018-06-03T12:15:48.002Z,44.55
2018-06-03T12:16:48.085Z,45.36
2018-06-03T12:17:48.159Z,44.30
2018-06-03T12:18:48.237Z,44.23
2018-06-03T12:19:48.315Z,44.77
2018-06-03T12:20:48.392Z,44.87
2018-06-03T12:21:48.471Z,45.37
2018-06-03T12:22:48.548Z,45.33
2018-06-03T12:23:48.625Z,45.33
2018-06-03T12:24:48.703Z,46.68
2018-06-03T12:25:48.781Z,45.72
2018-06-03T12:26:49.451Z,46.14
2018-06-03T12:27:48.987Z,45.55
2018-06-03T12:28:49.015Z,44.53
2018-06-03T12:29:49.100Z,45.78
2018-06-03T12:30:49.173Z,46.53
2018-06-03T12:31:49.249Z,44.57
2018-06-03T12:32:49.328Z,43.81
2018-06-03T12:33:49.408Z,42.56
2018-06-03T12:34:49.484Z,41.88
2018-06-03T12:35:49.561Z,42.52
2018-06-03T12:36:49.640Z,42.61
2018-06-03T12:37:49.717Z,43.57
2018-06-03T12:38:49.797Z,43.49
2018-06-03T12:39:49.872Z,42.93
2018-06-03T12:40:49.949Z,42.71
2018-06-03T12:41:50.088Z,44.04
2018-06-03T12:42:50.107Z,46.02
2018-06-03T12:43:50.335Z,48.12
2018-06-03T12:44:50.263Z,48.44
2018-06-03T12:45:50.342Z,47.92
2018-06-03T12:46:50.424Z,47.78
2018-06-03T12:47:50.496Z,46.66
2018-06-03T12:48:50.577Z,44.84
2018-06-03T12:49:50.652Z,44.01
2018-06-03T12:50:50.730Z,42.54
2018-06-03T12:51:50.806Z,42.36
2018-06-03T12:52:50.884Z,42.07